sensor_id;sensor_type;location;lat;lon;timestamp;noise_LAeq;noise_LA_min;noise_LA_max;noise_LA01;noise_LA95
37833;Laerm;23678;48.778;9.160;2023-04-24T00:01:12;38.20;33.44;42.65;;
37833;Laerm;23678;48.778;9.160;2023-04-24T00:03:56;37.49;32.35;40.13;;
37833;Laerm;23678;48.778;9.160;2023-04-24T00:06:43;37.58;31.68;41.14;;
37833;Laerm;23678;48.778;9.160;2023-04-24T00:09:27;37.53;29.92;40.53;;
37833;Laerm;23678;48.778;9.160;2023-04-24T00:12:11;37.45;31.33;40.71;;
37833;Laerm;23678;48.778;9.160;2023-04-24T00:14:54;37.42;31.68;40.43;;
37833;Laerm;23678;48.778;9.160;2023-04-24T00:17:38;37.46;32.35;40.23;;
37833;Laerm;23678;48.778;9.160;2023-04-24T00:20:22;37.43;31.68;40.62;;
37833;Laerm;23678;48.778;9.160;2023-04-24T00:23:06;37.42;32.35;42.88;;
37833;Laerm;23678;48.778;9.160;2023-04-24T00:25:50;37.34;32.93;40.33;;
37833;Laerm;23678;48.778;9.160;2023-04-24T00:28:34;37.36;32.93;40.33;;
37833;Laerm;23678;48.778;9.160;2023-04-24T00:31:18;38.25;32.93;47.06;;
37833;Laerm;23678;48.778;9.160;2023-04-24T00:34:03;38.29;32.35;46.66;;
37833;Laerm;23678;48.778;9.160;2023-04-24T00:36:47;37.25;29.92;39.92;;
37833;Laerm;23678;48.778;9.160;2023-04-24T00:39:32;37.40;32.35;42.16;;
37833;Laerm;23678;48.778;9.160;2023-04-24T00:42:16;37.99;32.93;43.94;;
37833;Laerm;23678;48.778;9.160;2023-04-24T00:45:00;38.21;32.93;46.52;;
37833;Laerm;23678;48.778;9.160;2023-04-24T00:47:45;37.29;32.93;40.43;;
37833;Laerm;23678;48.778;9.160;2023-04-24T00:50:29;38.21;32.35;49.12;;
37833;Laerm;23678;48.778;9.160;2023-04-24T00:53:14;37.67;32.35;41.61;;
37833;Laerm;23678;48.778;9.160;2023-04-24T00:55:58;37.98;33.44;42.88;;
37833;Laerm;23678;48.778;9.160;2023-04-24T00:58:42;37.25;31.68;40.80;;
37833;Laerm;23678;48.778;9.160;2023-04-24T01:01:26;37.33;32.35;40.62;;
37833;Laerm;23678;48.778;9.160;2023-04-24T01:04:11;37.44;31.68;42.76;;
37833;Laerm;23678;48.778;9.160;2023-04-24T01:06:55;37.40;32.93;42.29;;
37833;Laerm;23678;48.778;9.160;2023-04-24T01:09:40;37.36;32.93;42.82;;
37833;Laerm;23678;48.778;9.160;2023-04-24T01:12:27;38.00;31.68;42.41;;
37833;Laerm;23678;48.778;9.160;2023-04-24T01:15:11;37.23;32.35;40.13;;
37833;Laerm;23678;48.778;9.160;2023-04-24T01:17:55;37.13;30.89;39.92;;
37833;Laerm;23678;48.778;9.160;2023-04-24T01:20:40;37.20;30.89;40.03;;
37833;Laerm;23678;48.778;9.160;2023-04-24T01:23:24;37.17;32.35;39.81;;
37833;Laerm;23678;48.778;9.160;2023-04-24T01:26:08;37.16;31.68;40.03;;
37833;Laerm;23678;48.778;9.160;2023-04-24T01:28:51;37.18;32.35;41.30;;
37833;Laerm;23678;48.778;9.160;2023-04-24T01:31:36;37.17;31.68;49.60;;
37833;Laerm;23678;48.778;9.160;2023-04-24T01:34:20;37.13;29.92;40.13;;
37833;Laerm;23678;48.778;9.160;2023-04-24T01:37:04;37.15;32.35;40.03;;
37833;Laerm;23678;48.778;9.160;2023-04-24T01:39:48;37.13;29.92;40.03;;
37833;Laerm;23678;48.778;9.160;2023-04-24T01:42:33;38.49;32.93;45.04;;
37833;Laerm;23678;48.778;9.160;2023-04-24T01:45:17;37.25;31.68;40.62;;
37833;Laerm;23678;48.778;9.160;2023-04-24T01:48:01;37.18;29.92;40.33;;
37833;Laerm;23678;48.778;9.160;2023-04-24T01:50:45;37.30;30.89;40.89;;
37833;Laerm;23678;48.778;9.160;2023-04-24T01:53:29;37.29;29.92;45.69;;
37833;Laerm;23678;48.778;9.160;2023-04-24T01:56:13;37.18;32.93;41.11;;
37833;Laerm;23678;48.778;9.160;2023-04-24T01:58:57;37.17;31.68;40.03;;
37833;Laerm;23678;48.778;9.160;2023-04-24T02:01:42;37.14;31.68;39.81;;
37833;Laerm;23678;48.778;9.160;2023-04-24T02:04:26;37.23;32.35;40.43;;
37833;Laerm;23678;48.778;9.160;2023-04-24T02:07:10;37.20;31.68;40.53;;
37833;Laerm;23678;48.778;9.160;2023-04-24T02:09:54;37.20;32.93;40.13;;
37833;Laerm;23678;48.778;9.160;2023-04-24T02:12:39;40.32;31.68;53.92;;
37833;Laerm;23678;48.778;9.160;2023-04-24T02:15:23;37.19;30.89;39.92;;
37833;Laerm;23678;48.778;9.160;2023-04-24T02:18:07;37.23;30.89;39.81;;
37833;Laerm;23678;48.778;9.160;2023-04-24T02:20:51;37.17;30.89;40.53;;
37833;Laerm;23678;48.778;9.160;2023-04-24T02:23:35;37.21;30.89;39.89;;
37833;Laerm;23678;48.778;9.160;2023-04-24T02:26:19;37.32;31.68;40.71;;
37833;Laerm;23678;48.778;9.160;2023-04-24T02:29:03;37.88;32.35;42.41;;
37833;Laerm;23678;48.778;9.160;2023-04-24T02:31:47;37.95;32.35;43.34;;
37833;Laerm;23678;48.778;9.160;2023-04-24T02:34:31;37.52;32.93;42.35;;
37833;Laerm;23678;48.778;9.160;2023-04-24T02:37:15;37.30;30.89;41.30;;
37833;Laerm;23678;48.778;9.160;2023-04-24T02:39:58;37.36;29.92;40.71;;
37833;Laerm;23678;48.778;9.160;2023-04-24T02:42:48;37.32;31.68;40.71;;
37833;Laerm;23678;48.778;9.160;2023-04-24T02:45:31;39.44;33.44;67.58;;
37833;Laerm;23678;48.778;9.160;2023-04-24T02:48:18;40.36;33.90;59.59;;
37833;Laerm;23678;48.778;9.160;2023-04-24T02:51:04;39.37;32.35;51.60;;
37833;Laerm;23678;48.778;9.160;2023-04-24T02:53:48;40.94;32.93;56.04;;
37833;Laerm;23678;48.778;9.160;2023-04-24T02:56:32;40.55;32.93;53.20;;
37833;Laerm;23678;48.778;9.160;2023-04-24T02:59:16;40.63;33.44;52.65;;
37833;Laerm;23678;48.778;9.160;2023-04-24T03:02:00;40.10;33.44;52.35;;
37833;Laerm;23678;48.778;9.160;2023-04-24T03:04:56;40.49;30.89;51.76;;
37833;Laerm;23678;48.778;9.160;2023-04-24T03:07:46;40.69;34.69;53.53;;
37833;Laerm;23678;48.778;9.160;2023-04-24T03:10:30;41.85;33.90;54.26;;
37833;Laerm;23678;48.778;9.160;2023-04-24T03:13:16;41.26;34.31;55.22;;
37833;Laerm;23678;48.778;9.160;2023-04-24T03:16:00;40.50;32.93;53.02;;
37833;Laerm;23678;48.778;9.160;2023-04-24T03:18:44;43.92;33.55;59.80;;
37833;Laerm;23678;48.778;9.160;2023-04-24T03:21:28;45.84;34.69;62.49;;
37833;Laerm;23678;48.778;9.160;2023-04-24T03:24:12;45.62;33.90;61.96;;
37833;Laerm;23678;48.778;9.160;2023-04-24T03:26:56;43.11;34.31;57.68;;
37833;Laerm;23678;48.778;9.160;2023-04-24T03:29:40;42.86;32.93;57.56;;
37833;Laerm;23678;48.778;9.160;2023-04-24T03:32:24;42.30;34.69;54.77;;
37833;Laerm;23678;48.778;9.160;2023-04-24T03:35:08;44.46;34.69;57.76;;
37833;Laerm;23678;48.778;9.160;2023-04-24T03:37:52;45.02;35.04;57.89;;
37833;Laerm;23678;48.778;9.160;2023-04-24T03:40:36;43.83;34.69;55.94;;
37833;Laerm;23678;48.778;9.160;2023-04-24T03:43:20;40.39;35.04;56.53;;
37833;Laerm;23678;48.778;9.160;2023-04-24T03:46:04;41.17;34.69;56.28;;
37833;Laerm;23678;48.778;9.160;2023-04-24T03:48:48;42.60;33.44;57.81;;
37833;Laerm;23678;48.778;9.160;2023-04-24T03:51:31;39.81;34.69;56.33;;
37833;Laerm;23678;48.778;9.160;2023-04-24T03:54:15;42.62;34.31;59.98;;
37833;Laerm;23678;48.778;9.160;2023-04-24T03:56:59;38.70;34.31;45.23;;
37833;Laerm;23678;48.778;9.160;2023-04-24T03:59:47;39.36;33.44;50.08;;
37833;Laerm;23678;48.778;9.160;2023-04-24T04:02:31;39.32;35.04;45.66;;
37833;Laerm;23678;48.778;9.160;2023-04-24T04:05:15;38.59;34.31;52.33;;
37833;Laerm;23678;48.778;9.160;2023-04-24T04:07:59;38.59;34.31;43.44;;
37833;Laerm;23678;48.778;9.160;2023-04-24T04:10:43;38.40;32.93;41.38;;
37833;Laerm;23678;48.778;9.160;2023-04-24T04:13:27;40.94;34.69;54.80;;
37833;Laerm;23678;48.778;9.160;2023-04-24T04:16:11;38.48;33.90;42.03;;
37833;Laerm;23678;48.778;9.160;2023-04-24T04:18:55;39.59;34.69;50.72;;
37833;Laerm;23678;48.778;9.160;2023-04-24T04:21:39;38.88;35.04;42.41;;
37833;Laerm;23678;48.778;9.160;2023-04-24T04:24:23;39.22;34.69;49.29;;
37833;Laerm;23678;48.778;9.160;2023-04-24T04:27:07;41.23;35.04;62.87;;
37833;Laerm;23678;48.778;9.160;2023-04-24T04:29:51;41.85;36.20;70.69;;
37833;Laerm;23678;48.778;9.160;2023-04-24T04:32:36;41.06;35.04;54.50;;
37833;Laerm;23678;48.778;9.160;2023-04-24T04:35:20;41.42;35.36;56.99;;
37833;Laerm;23678;48.778;9.160;2023-04-24T04:38:04;40.22;35.66;64.39;;
37833;Laerm;23678;48.778;9.160;2023-04-24T04:40:48;41.28;36.69;58.12;;
37833;Laerm;23678;48.778;9.160;2023-04-24T04:43:32;43.37;38.05;62.08;;
37833;Laerm;23678;48.778;9.160;2023-04-24T04:46:17;42.08;36.45;52.74;;
37833;Laerm;23678;48.778;9.160;2023-04-24T04:49:01;41.26;36.69;54.57;;
37833;Laerm;23678;48.778;9.160;2023-04-24T04:51:46;40.92;35.36;55.25;;
37833;Laerm;23678;48.778;9.160;2023-04-24T04:54:30;42.11;36.91;53.09;;
37833;Laerm;23678;48.778;9.160;2023-04-24T04:57:15;44.88;42.93;51.77;;
37833;Laerm;23678;48.778;9.160;2023-04-24T04:59:59;45.30;36.20;55.73;;
37833;Laerm;23678;48.778;9.160;2023-04-24T05:02:43;42.47;36.56;54.19;;
37833;Laerm;23678;48.778;9.160;2023-04-24T05:05:27;39.92;35.36;55.16;;
37833;Laerm;23678;48.778;9.160;2023-04-24T05:08:11;43.57;35.04;61.64;;
37833;Laerm;23678;48.778;9.160;2023-04-24T05:10:55;40.70;34.69;55.18;;
37833;Laerm;23678;48.778;9.160;2023-04-24T05:13:39;41.15;35.66;52.42;;
37833;Laerm;23678;48.778;9.160;2023-04-24T05:16:23;40.03;35.04;50.62;;
37833;Laerm;23678;48.778;9.160;2023-04-24T05:19:07;41.90;35.66;54.87;;
37833;Laerm;23678;48.778;9.160;2023-04-24T05:21:51;47.30;36.45;62.09;;
37833;Laerm;23678;48.778;9.160;2023-04-24T05:24:35;42.14;35.94;49.11;;
37833;Laerm;23678;48.778;9.160;2023-04-24T05:27:19;42.16;34.69;59.44;;
37833;Laerm;23678;48.778;9.160;2023-04-24T05:30:04;44.15;36.69;69.90;;
37833;Laerm;23678;48.778;9.160;2023-04-24T05:32:48;42.63;37.88;53.25;;
37833;Laerm;23678;48.778;9.160;2023-04-24T05:35:32;40.48;36.91;48.52;;
37833;Laerm;23678;48.778;9.160;2023-04-24T05:38:16;44.56;37.32;56.19;;
37833;Laerm;23678;48.778;9.160;2023-04-24T05:41:03;42.91;36.91;61.14;;
37833;Laerm;23678;48.778;9.160;2023-04-24T05:43:46;43.95;38.95;55.49;;
37833;Laerm;23678;48.778;9.160;2023-04-24T05:46:30;43.58;37.88;55.58;;
37833;Laerm;23678;48.778;9.160;2023-04-24T05:49:14;43.50;37.88;54.83;;
37833;Laerm;23678;48.778;9.160;2023-04-24T05:51:58;41.79;35.36;57.33;;
37833;Laerm;23678;48.778;9.160;2023-04-24T05:54:42;41.87;36.20;53.99;;
37833;Laerm;23678;48.778;9.160;2023-04-24T05:57:26;42.53;36.91;53.00;;
37833;Laerm;23678;48.778;9.160;2023-04-24T06:00:10;42.71;38.52;52.11;;
37833;Laerm;23678;48.778;9.160;2023-04-24T06:02:56;44.97;38.67;55.22;;
37833;Laerm;23678;48.778;9.160;2023-04-24T06:05:40;41.57;37.70;56.87;;
37833;Laerm;23678;48.778;9.160;2023-04-24T06:08:24;45.35;39.21;58.85;;
37833;Laerm;23678;48.778;9.160;2023-04-24T06:11:08;51.46;44.83;77.39;;
37833;Laerm;23678;48.778;9.160;2023-04-24T06:13:52;49.23;37.12;71.77;;
37833;Laerm;23678;48.778;9.160;2023-04-24T06:16:35;41.87;36.34;51.26;;
37833;Laerm;23678;48.778;9.160;2023-04-24T06:19:19;43.41;35.66;67.23;;
37833;Laerm;23678;48.778;9.160;2023-04-24T06:22:04;45.66;38.21;58.03;;
37833;Laerm;23678;48.778;9.160;2023-04-24T06:24:48;45.33;38.37;56.00;;
37833;Laerm;23678;48.778;9.160;2023-04-24T06:27:32;43.23;37.88;53.73;;
37833;Laerm;23678;48.778;9.160;2023-04-24T06:30:16;42.47;36.45;54.59;;
37833;Laerm;23678;48.778;9.160;2023-04-24T06:33:00;41.73;36.20;54.38;;
37833;Laerm;23678;48.778;9.160;2023-04-24T06:35:44;42.12;37.12;51.40;;
37833;Laerm;23678;48.778;9.160;2023-04-24T06:38:28;42.02;36.20;53.01;;
37833;Laerm;23678;48.778;9.160;2023-04-24T06:41:13;43.08;37.12;59.39;;
37833;Laerm;23678;48.778;9.160;2023-04-24T06:43:57;45.90;36.20;62.85;;
37833;Laerm;23678;48.778;9.160;2023-04-24T06:46:41;42.40;36.69;64.03;;
37833;Laerm;23678;48.778;9.160;2023-04-24T06:49:25;44.28;36.91;63.23;;
37833;Laerm;23678;48.778;9.160;2023-04-24T06:52:11;43.76;35.66;63.51;;
37833;Laerm;23678;48.778;9.160;2023-04-24T06:54:59;41.05;35.94;50.54;;
37833;Laerm;23678;48.778;9.160;2023-04-24T06:57:44;42.54;36.69;54.79;;
37833;Laerm;23678;48.778;9.160;2023-04-24T07:00:28;42.05;36.45;54.97;;
37833;Laerm;23678;48.778;9.160;2023-04-24T07:03:13;41.47;36.20;55.08;;
37833;Laerm;23678;48.778;9.160;2023-04-24T07:05:57;42.45;36.20;58.11;;
37833;Laerm;23678;48.778;9.160;2023-04-24T07:08:41;41.16;35.66;51.13;;
37833;Laerm;23678;48.778;9.160;2023-04-24T07:11:25;40.91;35.66;48.76;;
37833;Laerm;23678;48.778;9.160;2023-04-24T07:14:13;41.45;36.45;59.38;;
37833;Laerm;23678;48.778;9.160;2023-04-24T07:16:57;40.22;34.69;65.23;;
37833;Laerm;23678;48.778;9.160;2023-04-24T07:19:41;44.14;35.66;57.57;;
37833;Laerm;23678;48.778;9.160;2023-04-24T07:22:25;40.31;35.04;52.04;;
37833;Laerm;23678;48.778;9.160;2023-04-24T07:25:09;41.42;34.31;54.33;;
37833;Laerm;23678;48.778;9.160;2023-04-24T07:27:53;42.71;34.69;55.70;;
37833;Laerm;23678;48.778;9.160;2023-04-24T07:30:37;40.77;36.20;60.58;;
37833;Laerm;23678;48.778;9.160;2023-04-24T07:33:21;42.10;35.66;58.02;;
37833;Laerm;23678;48.778;9.160;2023-04-24T07:36:05;40.88;35.66;48.78;;
37833;Laerm;23678;48.778;9.160;2023-04-24T07:38:49;41.46;36.91;51.62;;
37833;Laerm;23678;48.778;9.160;2023-04-24T07:41:33;40.26;35.66;50.98;;
37833;Laerm;23678;48.778;9.160;2023-04-24T07:44:17;41.04;35.66;54.25;;
37833;Laerm;23678;48.778;9.160;2023-04-24T07:47:01;41.40;35.66;50.11;;
37833;Laerm;23678;48.778;9.160;2023-04-24T07:49:45;41.48;34.31;50.79;;
37833;Laerm;23678;48.778;9.160;2023-04-24T07:52:29;42.89;34.31;57.38;;
37833;Laerm;23678;48.778;9.160;2023-04-24T07:55:14;42.30;36.34;53.72;;
37833;Laerm;23678;48.778;9.160;2023-04-24T07:57:58;46.71;36.20;64.87;;
37833;Laerm;23678;48.778;9.160;2023-04-24T08:00:42;41.64;33.97;50.05;;
37833;Laerm;23678;48.778;9.160;2023-04-24T08:03:26;40.93;35.04;56.02;;
37833;Laerm;23678;48.778;9.160;2023-04-24T08:06:10;41.81;37.52;49.67;;
37833;Laerm;23678;48.778;9.160;2023-04-24T08:08:53;40.74;35.04;46.95;;
37833;Laerm;23678;48.778;9.160;2023-04-24T08:11:21;44.07;34.31;55.87;;
37833;Laerm;23678;48.778;9.160;2023-04-24T08:14:06;39.47;33.44;55.72;;
37833;Laerm;23678;48.778;9.160;2023-04-24T08:16:49;38.98;33.90;48.60;;
37833;Laerm;23678;48.778;9.160;2023-04-24T08:19:52;38.86;33.90;54.29;;
37833;Laerm;23678;48.778;9.160;2023-04-24T08:22:40;40.47;33.90;51.26;;
37833;Laerm;23678;48.778;9.160;2023-04-24T08:25:24;41.61;34.31;63.10;;
37833;Laerm;23678;48.778;9.160;2023-04-24T08:28:08;45.99;35.04;66.39;;
37833;Laerm;23678;48.778;9.160;2023-04-24T08:30:52;39.96;33.90;46.71;;
37833;Laerm;23678;48.778;9.160;2023-04-24T08:33:38;40.87;33.44;60.68;;
37833;Laerm;23678;48.778;9.160;2023-04-24T08:36:22;41.16;33.90;60.45;;
37833;Laerm;23678;48.778;9.160;2023-04-24T08:39:06;42.65;35.04;60.48;;
37833;Laerm;23678;48.778;9.160;2023-04-24T08:41:50;39.88;33.90;47.13;;
37833;Laerm;23678;48.778;9.160;2023-04-24T08:44:34;39.08;34.69;46.69;;
37833;Laerm;23678;48.778;9.160;2023-04-24T08:47:19;41.00;35.36;50.96;;
37833;Laerm;23678;48.778;9.160;2023-04-24T08:50:04;40.12;34.69;51.84;;
37833;Laerm;23678;48.778;9.160;2023-04-24T08:52:50;41.27;35.36;48.40;;
37833;Laerm;23678;48.778;9.160;2023-04-24T08:55:34;40.22;34.31;48.16;;
37833;Laerm;23678;48.778;9.160;2023-04-24T08:58:19;42.60;35.31;55.72;;
37833;Laerm;23678;48.778;9.160;2023-04-24T09:01:03;40.69;35.36;54.83;;
37833;Laerm;23678;48.778;9.160;2023-04-24T09:03:48;41.59;36.45;51.52;;
37833;Laerm;23678;48.778;9.160;2023-04-24T09:06:32;41.04;35.04;59.82;;
37833;Laerm;23678;48.778;9.160;2023-04-24T09:09:16;42.09;35.04;58.14;;
37833;Laerm;23678;48.778;9.160;2023-04-24T09:12:00;41.04;35.94;52.02;;
37833;Laerm;23678;48.778;9.160;2023-04-24T09:14:45;41.62;34.31;54.64;;
37833;Laerm;23678;48.778;9.160;2023-04-24T09:17:30;42.40;35.04;57.12;;
37833;Laerm;23678;48.778;9.160;2023-04-24T09:20:14;41.17;35.94;60.03;;
37833;Laerm;23678;48.778;9.160;2023-04-24T09:22:58;41.39;35.04;54.04;;
37833;Laerm;23678;48.778;9.160;2023-04-24T09:25:42;39.92;33.90;46.76;;
37833;Laerm;23678;48.778;9.160;2023-04-24T09:28:30;43.65;34.69;60.03;;
37833;Laerm;23678;48.778;9.160;2023-04-24T09:31:15;43.16;37.32;59.23;;
37833;Laerm;23678;48.778;9.160;2023-04-24T09:34:02;41.25;35.04;52.48;;
37833;Laerm;23678;48.778;9.160;2023-04-24T09:36:47;40.61;35.04;50.83;;
37833;Laerm;23678;48.778;9.160;2023-04-24T09:39:31;40.76;35.36;49.84;;
37833;Laerm;23678;48.778;9.160;2023-04-24T09:45:28;40.31;34.69;48.07;;
37833;Laerm;23678;48.778;9.160;2023-04-24T09:48:18;40.85;35.36;52.61;;
37833;Laerm;23678;48.778;9.160;2023-04-24T09:51:03;40.77;35.04;54.25;;
37833;Laerm;23678;48.778;9.160;2023-04-24T09:53:47;41.63;34.31;52.48;;
37833;Laerm;23678;48.778;9.160;2023-04-24T09:56:34;40.09;33.55;54.58;;
37833;Laerm;23678;48.778;9.160;2023-04-24T09:59:18;40.11;33.44;51.21;;
37833;Laerm;23678;48.778;9.160;2023-04-24T10:02:03;42.88;34.69;54.64;;
37833;Laerm;23678;48.778;9.160;2023-04-24T10:04:59;43.31;34.31;52.66;;
37833;Laerm;23678;48.778;9.160;2023-04-24T10:07:44;40.34;35.04;51.91;;
37833;Laerm;23678;48.778;9.160;2023-04-24T10:10:32;40.04;33.90;45.94;;
37833;Laerm;23678;48.778;9.160;2023-04-24T10:13:15;41.20;33.90;56.96;;
37833;Laerm;23678;48.778;9.160;2023-04-24T10:16:00;40.12;34.31;48.54;;
37833;Laerm;23678;48.778;9.160;2023-04-24T10:18:44;40.27;34.31;52.45;;
37833;Laerm;23678;48.778;9.160;2023-04-24T10:21:28;40.84;35.36;53.03;;
37833;Laerm;23678;48.778;9.160;2023-04-24T10:24:16;41.74;34.69;54.09;;
37833;Laerm;23678;48.778;9.160;2023-04-24T10:27:00;41.42;35.36;50.53;;
37833;Laerm;23678;48.778;9.160;2023-04-24T10:29:45;40.40;34.69;55.57;;
37833;Laerm;23678;48.778;9.160;2023-04-24T10:32:30;41.30;34.69;55.41;;
37833;Laerm;23678;48.778;9.160;2023-04-24T10:35:15;39.86;34.69;56.61;;
37833;Laerm;23678;48.778;9.160;2023-04-24T10:38:05;40.46;33.44;52.72;;
37833;Laerm;23678;48.778;9.160;2023-04-24T10:40:50;42.17;35.36;62.09;;
37833;Laerm;23678;48.778;9.160;2023-04-24T10:43:34;40.76;34.69;52.38;;
37833;Laerm;23678;48.778;9.160;2023-04-24T10:46:21;40.46;33.90;57.60;;
37833;Laerm;23678;48.778;9.160;2023-04-24T10:49:06;39.16;33.44;48.66;;
37833;Laerm;23678;48.778;9.160;2023-04-24T10:51:52;39.50;34.31;46.84;;
37833;Laerm;23678;48.778;9.160;2023-04-24T10:57:27;40.98;34.31;51.77;;
37833;Laerm;23678;48.778;9.160;2023-04-24T11:00:16;40.64;35.04;50.02;;
37833;Laerm;23678;48.778;9.160;2023-04-24T11:03:01;39.58;35.04;46.23;;
37833;Laerm;23678;48.778;9.160;2023-04-24T11:05:49;40.93;34.69;49.03;;
37833;Laerm;23678;48.778;9.160;2023-04-24T11:08:42;39.65;33.44;51.55;;
37833;Laerm;23678;48.778;9.160;2023-04-24T11:11:30;41.32;35.66;51.13;;
37833;Laerm;23678;48.778;9.160;2023-04-24T11:14:14;41.00;35.36;48.71;;
37833;Laerm;23678;48.778;9.160;2023-04-24T11:16:58;41.22;35.36;50.82;;
37833;Laerm;23678;48.778;9.160;2023-04-24T11:23:05;40.79;35.66;52.64;;
37833;Laerm;23678;48.778;9.160;2023-04-24T11:26:09;40.26;34.34;54.16;;
37833;Laerm;23678;48.778;9.160;2023-04-24T11:28:53;39.82;34.31;50.30;;
37833;Laerm;23678;48.778;9.160;2023-04-24T11:31:38;40.90;32.93;50.65;;
37833;Laerm;23678;48.778;9.160;2023-04-24T11:34:22;39.77;34.31;55.19;;
37833;Laerm;23678;48.778;9.160;2023-04-24T11:37:07;45.59;34.31;64.23;;
37833;Laerm;23678;48.778;9.160;2023-04-24T11:39:52;41.84;34.69;63.82;;
37833;Laerm;23678;48.778;9.160;2023-04-24T11:42:40;40.05;32.93;50.63;;
37833;Laerm;23678;48.778;9.160;2023-04-24T11:45:25;39.33;33.90;48.12;;
37833;Laerm;23678;48.778;9.160;2023-04-24T11:48:09;45.17;35.36;63.33;;
37833;Laerm;23678;48.778;9.160;2023-04-24T11:50:53;41.49;35.04;54.92;;
37833;Laerm;23678;48.778;9.160;2023-04-24T11:53:37;42.32;34.69;55.35;;
37833;Laerm;23678;48.778;9.160;2023-04-24T11:56:22;39.34;34.69;45.83;;
37833;Laerm;23678;48.778;9.160;2023-04-24T11:59:06;40.02;34.31;47.96;;
37833;Laerm;23678;48.778;9.160;2023-04-24T12:01:50;39.47;33.90;47.26;;
37833;Laerm;23678;48.778;9.160;2023-04-24T12:07:55;40.65;34.31;54.82;;
37833;Laerm;23678;48.778;9.160;2023-04-24T12:10:39;40.66;35.04;53.21;;
37833;Laerm;23678;48.778;9.160;2023-04-24T12:13:22;39.89;33.44;48.10;;
37833;Laerm;23678;48.778;9.160;2023-04-24T12:16:08;40.75;34.69;56.19;;
37833;Laerm;23678;48.778;9.160;2023-04-24T12:18:52;41.09;35.94;50.83;;
37833;Laerm;23678;48.778;9.160;2023-04-24T12:21:36;42.22;36.20;51.09;;
37833;Laerm;23678;48.778;9.160;2023-04-24T12:24:20;40.56;34.69;51.62;;
37833;Laerm;23678;48.778;9.160;2023-04-24T12:27:04;41.16;35.04;52.17;;
37833;Laerm;23678;48.778;9.160;2023-04-24T12:30:09;40.79;30.89;54.93;;
37833;Laerm;23678;48.778;9.160;2023-04-24T12:32:56;39.18;33.44;52.48;;
37833;Laerm;23678;48.778;9.160;2023-04-24T12:35:40;41.21;33.44;54.41;;
37833;Laerm;23678;48.778;9.160;2023-04-24T12:38:28;41.70;34.69;52.06;;
37833;Laerm;23678;48.778;9.160;2023-04-24T12:44:34;39.60;32.35;50.06;;
37833;Laerm;23678;48.778;9.160;2023-04-24T12:47:20;40.75;34.31;56.19;;
37833;Laerm;23678;48.778;9.160;2023-04-24T12:50:04;40.10;33.44;51.80;;
37833;Laerm;23678;48.778;9.160;2023-04-24T12:52:49;40.42;33.44;49.40;;
37833;Laerm;23678;48.778;9.160;2023-04-24T12:55:33;40.49;34.31;52.93;;
37833;Laerm;23678;48.778;9.160;2023-04-24T12:58:20;39.27;33.44;48.66;;
37833;Laerm;23678;48.778;9.160;2023-04-24T13:01:04;40.09;32.93;47.28;;
37833;Laerm;23678;48.778;9.160;2023-04-24T13:03:48;41.20;33.44;51.18;;
37833;Laerm;23678;48.778;9.160;2023-04-24T13:06:31;39.99;33.44;50.35;;
37833;Laerm;23678;48.778;9.160;2023-04-24T13:09:16;40.97;34.31;53.83;;
37833;Laerm;23678;48.778;9.160;2023-04-24T13:12:00;39.67;33.90;47.20;;
37833;Laerm;23678;48.778;9.160;2023-04-24T13:14:44;42.30;34.69;55.34;;
37833;Laerm;23678;48.778;9.160;2023-04-24T13:17:29;41.44;33.44;55.61;;
37833;Laerm;23678;48.778;9.160;2023-04-24T13:20:13;38.72;33.90;44.08;;
37833;Laerm;23678;48.778;9.160;2023-04-24T13:22:56;41.50;35.04;53.03;;
37833;Laerm;23678;48.778;9.160;2023-04-24T13:25:40;44.85;35.36;57.33;;
37833;Laerm;23678;48.778;9.160;2023-04-24T13:28:24;49.00;35.66;66.08;;
37833;Laerm;23678;48.778;9.160;2023-04-24T13:31:08;44.87;34.69;61.11;;
37833;Laerm;23678;48.778;9.160;2023-04-24T13:33:52;39.16;33.44;43.99;;
37833;Laerm;23678;48.778;9.160;2023-04-24T13:36:36;40.79;34.31;51.94;;
37833;Laerm;23678;48.778;9.160;2023-04-24T13:39:20;40.01;32.93;48.15;;
37833;Laerm;23678;48.778;9.160;2023-04-24T13:42:05;41.40;34.31;54.28;;
37833;Laerm;23678;48.778;9.160;2023-04-24T13:44:48;40.79;35.04;50.13;;
37833;Laerm;23678;48.778;9.160;2023-04-24T13:47:32;41.98;35.94;59.18;;
37833;Laerm;23678;48.778;9.160;2023-04-24T13:50:16;41.76;36.69;51.97;;
37833;Laerm;23678;48.778;9.160;2023-04-24T13:53:01;41.55;36.20;55.52;;
37833;Laerm;23678;48.778;9.160;2023-04-24T13:55:46;42.74;36.45;51.49;;
37833;Laerm;23678;48.778;9.160;2023-04-24T13:58:29;44.27;37.32;54.51;;
37833;Laerm;23678;48.778;9.160;2023-04-24T14:01:13;42.02;36.77;53.43;;
37833;Laerm;23678;48.778;9.160;2023-04-24T14:03:58;43.60;36.20;56.71;;
37833;Laerm;23678;48.778;9.160;2023-04-24T14:06:43;43.16;35.94;56.52;;
37833;Laerm;23678;48.778;9.160;2023-04-24T14:09:27;40.58;35.36;55.34;;
37833;Laerm;23678;48.778;9.160;2023-04-24T14:12:10;42.08;36.20;58.95;;
37833;Laerm;23678;48.778;9.160;2023-04-24T14:14:55;40.24;35.66;54.39;;
37833;Laerm;23678;48.778;9.160;2023-04-24T14:17:39;42.31;35.94;56.19;;
37833;Laerm;23678;48.778;9.160;2023-04-24T14:20:23;46.13;37.32;66.23;;
37833;Laerm;23678;48.778;9.160;2023-04-24T14:23:07;43.58;36.69;58.75;;
37833;Laerm;23678;48.778;9.160;2023-04-24T14:25:51;42.64;36.69;51.93;;
37833;Laerm;23678;48.778;9.160;2023-04-24T14:28:36;42.02;36.69;51.76;;
37833;Laerm;23678;48.778;9.160;2023-04-24T14:31:20;44.43;36.20;56.08;;
37833;Laerm;23678;48.778;9.160;2023-04-24T14:34:04;41.58;35.59;53.60;;
37833;Laerm;23678;48.778;9.160;2023-04-24T14:36:48;41.47;35.04;50.97;;
37833;Laerm;23678;48.778;9.160;2023-04-24T14:39:32;40.44;34.69;51.30;;
37833;Laerm;23678;48.778;9.160;2023-04-24T14:42:15;41.28;34.31;57.16;;
37833;Laerm;23678;48.778;9.160;2023-04-24T14:45:01;39.76;33.55;48.45;;
37833;Laerm;23678;48.778;9.160;2023-04-24T14:47:44;38.57;31.68;43.33;;
37833;Laerm;23678;48.778;9.160;2023-04-24T14:50:28;40.35;32.35;49.19;;
37833;Laerm;23678;48.778;9.160;2023-04-24T14:53:12;38.80;33.44;45.20;;
37833;Laerm;23678;48.778;9.160;2023-04-24T14:56:01;41.38;33.44;52.02;;
37833;Laerm;23678;48.778;9.160;2023-04-24T14:58:45;40.51;33.44;47.34;;
37833;Laerm;23678;48.778;9.160;2023-04-24T15:01:29;41.72;35.04;57.39;;
37833;Laerm;23678;48.778;9.160;2023-04-24T15:04:13;40.10;33.90;58.02;;
37833;Laerm;23678;48.778;9.160;2023-04-24T15:07:09;43.95;33.44;60.64;;
37833;Laerm;23678;48.778;9.160;2023-04-24T15:10:12;43.82;34.31;60.39;;
37833;Laerm;23678;48.778;9.160;2023-04-24T15:12:56;44.93;34.31;62.22;;
37833;Laerm;23678;48.778;9.160;2023-04-24T15:15:39;44.45;34.31;59.70;;
37833;Laerm;23678;48.778;9.160;2023-04-24T15:18:24;40.46;32.35;50.99;;
37833;Laerm;23678;48.778;9.160;2023-04-24T15:21:08;41.24;32.35;50.74;;
37833;Laerm;23678;48.778;9.160;2023-04-24T15:23:52;40.77;33.90;53.42;;
37833;Laerm;23678;48.778;9.160;2023-04-24T15:26:36;40.17;33.44;51.75;;
37833;Laerm;23678;48.778;9.160;2023-04-24T15:29:22;40.59;33.90;49.70;;
37833;Laerm;23678;48.778;9.160;2023-04-24T15:32:06;40.77;33.44;49.72;;
37833;Laerm;23678;48.778;9.160;2023-04-24T15:34:50;41.96;35.04;50.61;;
37833;Laerm;23678;48.778;9.160;2023-04-24T15:37:34;41.91;35.66;62.39;;